createdAt,value
2022-09-26T07:49:48.886Z,93.20
2022-09-26T08:00:15.185Z,83.40
2022-09-26T08:10:32.247Z,81.00
2022-09-26T08:20:53.587Z,73.70
2022-09-26T08:30:59.561Z,71.00
2022-09-26T08:41:17.084Z,65.90
2022-09-26T08:51:50.194Z,65.40
2022-09-26T09:01:55.064Z,66.40
2022-09-26T09:12:22.994Z,62.00
2022-09-26T09:23:08.661Z,56.80
2022-09-26T09:33:18.564Z,51.30
2022-09-26T09:43:40.501Z,51.20
2022-09-26T09:53:55.543Z,46.70
2022-09-26T10:04:05.793Z,42.90
2022-09-26T10:14:18.087Z,44.10
2022-09-26T10:24:46.404Z,43.80
2022-09-26T10:35:23.522Z,42.80
2022-09-26T10:45:32.684Z,31.30
2022-09-26T10:56:04.905Z,33.70
2022-09-26T11:06:24.229Z,30.80
2022-09-26T11:16:34.899Z,31.90
2022-09-26T11:26:51.759Z,34.60
2022-09-26T11:37:33.457Z,34.10
2022-09-26T11:48:01.781Z,32.80
2022-09-26T11:58:25.972Z,30.10
2022-09-26T12:08:31.944Z,26.40
2022-09-26T12:18:57.849Z,21.90
2022-09-26T12:29:11.783Z,23.50
2022-09-26T12:39:40.881Z,20.00
2022-09-26T12:50:13.060Z,23.20
2022-09-26T13:00:28.284Z,22.20
2022-09-26T13:10:52.560Z,25.20
2022-09-26T13:21:03.117Z,26.30
2022-09-26T13:31:32.438Z,30.50
2022-09-26T13:41:45.840Z,34.00
2022-09-26T13:51:56.658Z,37.10
2022-09-26T14:02:21.632Z,35.20
2022-09-26T14:12:36.983Z,36.60
2022-09-26T14:22:42.868Z,35.10
2022-09-26T14:32:49.664Z,36.50
2022-09-26T14:43:16.005Z,40.00
2022-09-26T14:53:40.442Z,44.50
2022-09-26T15:03:42.841Z,38.10
2022-09-26T15:13:50.423Z,42.70
2022-09-26T15:23:52.802Z,41.00
2022-09-26T15:34:03.681Z,44.20
2022-09-26T15:44:06.439Z,45.20
2022-09-26T15:54:20.306Z,46.00
2022-09-26T16:04:31.526Z,45.20
2022-09-26T16:14:48.704Z,46.50
2022-09-26T16:24:51.622Z,45.60
2022-09-26T16:34:53.682Z,45.70
2022-09-26T16:44:59.397Z,48.40
2022-09-26T16:55:02.982Z,49.20
2022-09-26T17:05:04.363Z,53.30
2022-09-26T17:15:08.606Z,55.90
2022-09-26T17:25:15.922Z,58.00
2022-09-26T17:35:22.900Z,60.30
2022-09-26T17:45:35.403Z,63.70
2022-09-26T17:55:37.561Z,70.80
2022-09-26T18:05:41.658Z,79.60
2022-09-26T18:15:43.607Z,81.00
2022-09-26T18:25:50.242Z,86.30
2022-09-26T18:35:53.600Z,92.80
2022-09-26T18:45:55.177Z,96.50
2022-09-26T18:56:15.381Z,99.90
2022-09-26T19:06:32.544Z,99.90
2022-09-26T19:16:34.701Z,99.90
2022-09-26T19:26:43.602Z,99.90
2022-09-26T19:36:45.642Z,99.90
2022-09-26T19:46:49.463Z,99.90
2022-09-26T19:56:52.321Z,99.90
2022-09-26T20:06:54.701Z,99.90
2022-09-26T20:17:01.433Z,99.90
2022-09-26T20:27:06.144Z,99.90
2022-09-26T20:37:07.617Z,99.90
2022-09-26T20:47:09.445Z,99.90
2022-09-26T20:57:11.582Z,99.90
2022-09-26T21:07:17.720Z,99.90
2022-09-26T21:17:24.380Z,99.90
2022-09-26T21:27:26.559Z,99.90
2022-09-26T21:37:28.258Z,99.90
2022-09-26T21:47:29.982Z,99.90
2022-09-26T21:57:43.438Z,99.90
2022-09-26T22:07:46.177Z,99.90
2022-09-26T22:17:48.740Z,99.90
2022-09-26T22:27:51.043Z,99.90
2022-09-26T22:37:52.643Z,99.90
2022-09-26T22:47:54.119Z,99.90
2022-09-26T22:57:55.735Z,99.90
2022-09-26T23:07:57.398Z,99.90
2022-09-26T23:17:59.175Z,99.90
2022-09-26T23:28:01.480Z,99.90
2022-09-26T23:38:05.254Z,99.90
2022-09-26T23:48:07.560Z,99.90
2022-09-26T23:58:08.929Z,99.90
